Terminal Aerodrome Forecast
Issued by NWS Billings, MT

Home | Current Version | Previous Version | Graphics & Text | Print | Product List | Glossary On
Versions: 1 2 3 4 5 6 7 8 9 10 11 12 13 14 15 16
000
FTUS45 KBYZ 251122
TAFMLS
TAF
KMLS 251122Z 2512/2612 18010KT P6SM SKC
     FM251800 24011KT P6SM FEW150
     FM252200 28015KT P6SM SCT150
     FM260100 33020G30KT P6SM VCSH SCT030 BKN070
     FM260600 32009KT P6SM FEW250=

USA.gov is the U.S. government's official web portal to all federal, state and local government web resources and services.